Time;durP1;ratioP1;P1;durP2;ratioP2;P2;SDS_P1;SDS_P2;PMS_P1;PMS_P2;Temp;Humidity;BMP_temperature;BMP_pressure;BME280_temperature;BME280_humidity;BME280_pressure;Samples;Min_cycle;Max_cycle;Signal;HPM_P1;HPM_P2
2022/03/04 00:01:27;;;;;;;19.13;13.85;;;;;;;2.96;55.19;101862.84;5045417;28;20055;-60
2022/03/04 00:03:52;;;;;;;21.98;14.60;;;;;;;2.94;55.46;101862.00;5053031;28;20037;-60
2022/03/04 00:06:17;;;;;;;19.67;13.30;;;;;;;2.91;55.66;101863.88;5053856;28;20041;-60
2022/03/04 00:08:43;;;;;;;21.00;14.20;;;;;;;2.88;55.51;101866.56;5053393;28;20069;-61
2022/03/04 00:11:08;;;;;;;21.88;13.82;;;;;;;2.83;55.45;101865.84;5053792;28;20045;-61
2022/03/04 00:13:33;;;;;;;20.52;14.75;;;;;;;2.80;55.81;101865.94;5046950;28;20087;-60
2022/03/04 00:15:59;;;;;;;19.27;14.30;;;;;;;2.76;55.94;101873.91;5033695;28;20045;-61
2022/03/04 00:18:26;;;;;;;20.50;13.35;;;;;;;2.74;56.07;101874.84;5033670;28;20044;-61
2022/03/04 00:20:51;;;;;;;19.40;13.82;;;;;;;2.71;56.09;101880.16;5034220;28;20025;-61
2022/03/04 00:23:18;;;;;;;21.20;14.23;;;;;;;2.68;56.46;101882.88;5033693;28;20041;-61
2022/03/04 00:25:44;;;;;;;19.33;13.40;;;;;;;2.64;56.59;101883.88;5046164;28;20065;-60
2022/03/04 00:28:09;;;;;;;18.98;13.75;;;;;;;2.63;56.81;101884.75;5018784;28;1006598;-60
2022/03/04 00:30:35;;;;;;;22.20;14.98;;;;;;;2.59;56.77;101874.34;5054234;28;20041;-60
2022/03/04 00:33:00;;;;;;;20.13;13.77;;;;;;;2.56;56.74;101882.28;5054263;28;20120;-60
2022/03/04 00:35:25;;;;;;;21.90;14.65;;;;;;;2.55;57.04;101884.97;5053860;28;20475;-61
2022/03/04 00:37:50;;;;;;;20.42;14.55;;;;;;;2.52;57.04;101885.06;5054331;28;20053;-59
2022/03/04 00:40:16;;;;;;;19.30;14.35;;;;;;;2.48;57.13;101888.63;5053907;28;20048;-60
2022/03/04 00:42:42;;;;;;;21.83;14.48;;;;;;;2.46;57.15;101887.81;5054157;28;20545;-59
2022/03/04 00:45:08;;;;;;;22.90;15.05;;;;;;;2.45;57.13;101891.34;5053670;28;20032;-59
2022/03/04 00:47:33;;;;;;;23.05;14.32;;;;;;;2.42;57.61;101896.69;5053537;28;20360;-60
2022/03/04 00:49:58;;;;;;;19.25;14.23;;;;;;;2.41;57.54;101893.19;5053836;28;20116;-60
2022/03/04 00:52:24;;;;;;;20.88;14.40;;;;;;;2.38;57.50;101888.00;5053954;28;20037;-60
2022/03/04 00:54:49;;;;;;;22.38;14.40;;;;;;;2.35;57.85;101890.72;5053833;28;20037;-60
2022/03/04 00:57:15;;;;;;;21.27;15.07;;;;;;;2.31;57.62;101889.94;5053226;28;20478;-60
2022/03/04 00:59:41;;;;;;;23.98;14.70;;;;;;;2.29;57.82;101888.25;5053804;28;20037;-60
2022/03/04 01:02:07;;;;;;;24.52;15.48;;;;;;;2.25;58.14;101899.69;5053552;28;20037;-60
2022/03/04 01:04:32;;;;;;;21.88;14.90;;;;;;;2.24;58.25;101891.00;5053046;28;20033;-60
2022/03/04 01:06:58;;;;;;;23.30;14.60;;;;;;;2.18;58.42;101886.78;5052167;28;20053;-60
2022/03/04 01:09:23;;;;;;;23.15;15.30;;;;;;;2.17;58.23;101900.75;5053428;28;20040;-60
2022/03/04 01:11:48;;;;;;;22.40;15.32;;;;;;;2.12;58.76;101894.78;5053407;28;20426;-60
2022/03/04 01:14:14;;;;;;;21.70;15.23;;;;;;;2.06;58.17;101897.53;5053233;28;20044;-60
2022/03/04 01:16:39;;;;;;;22.75;14.93;;;;;;;2.04;58.23;101907.19;5053241;28;20040;-60
2022/03/04 01:19:05;;;;;;;22.02;15.48;;;;;;;1.98;58.15;101897.75;5053203;28;20049;-60
2022/03/04 01:21:30;;;;;;;20.15;14.55;;;;;;;1.97;59.43;101903.00;5053430;28;20040;-60
2022/03/04 01:23:55;;;;;;;20.95;14.88;;;;;;;1.92;59.37;101899.66;5037283;28;20037;-60
2022/03/04 01:26:21;;;;;;;21.33;14.75;;;;;;;1.88;59.09;101896.22;5036704;28;20471;-60
2022/03/04 01:28:46;;;;;;;23.17;15.55;;;;;;;1.84;58.92;101892.81;5053217;28;20048;-60
2022/03/04 01:31:12;;;;;;;23.75;15.43;;;;;;;1.81;59.77;101892.00;5052828;28;20118;-59
2022/03/04 01:33:38;;;;;;;21.90;14.48;;;;;;;1.77;59.58;101888.63;5052987;28;20049;-60
2022/03/04 01:36:04;;;;;;;22.15;15.38;;;;;;;1.74;59.83;101890.44;5053115;28;20048;-60
2022/03/04 01:38:29;;;;;;;21.48;14.68;;;;;;;1.70;60.06;101884.41;5053025;28;20066;-60
2022/03/04 01:40:54;;;;;;;22.25;15.68;;;;;;;1.65;60.45;101879.28;5037032;28;20052;-60
2022/03/04 01:43:19;;;;;;;24.02;15.98;;;;;;;1.65;60.08;101886.28;5033175;28;20115;-60
2022/03/04 01:45:45;;;;;;;24.35;14.93;;;;;;;1.60;60.08;101875.91;5041988;28;20063;-60
2022/03/04 01:48:11;;;;;;;21.65;15.27;;;;;;;1.56;60.80;101869.00;5052797;28;20071;-60
2022/03/04 01:50:36;;;;;;;22.77;16.00;;;;;;;1.51;60.64;101880.47;5053122;28;20040;-60
2022/03/04 01:53:02;;;;;;;23.38;15.50;;;;;;;1.48;60.97;101878.78;5044226;28;20510;-60
2022/03/04 01:55:27;;;;;;;24.83;15.55;;;;;;;1.41;61.06;101880.66;5032923;28;20145;-60
2022/03/04 01:57:52;;;;;;;21.73;15.75;;;;;;;1.36;61.34;101877.28;5033195;28;20073;-60
2022/03/04 02:00:17;;;;;;;21.02;14.45;;;;;;;1.33;60.78;101879.13;5032920;28;20383;-60
2022/03/04 02:02:44;;;;;;;22.95;15.52;;;;;;;1.27;61.21;101882.75;5048241;28;20036;-60
2022/03/04 02:05:17;;;;;;;24.17;15.52;;;;;;;1.26;61.64;101894.94;5052826;28;20483;-60
2022/03/04 02:07:43;;;;;;;21.85;15.75;;;;;;;1.21;61.49;101888.09;5048353;28;20124;-60
2022/03/04 02:10:09;;;;;;;24.13;15.57;;;;;;;1.18;62.01;101888.16;5032739;28;20390;-60
2022/03/04 02:12:35;;;;;;;26.85;16.40;;;;;;;1.13;62.41;101895.25;5032738;28;20038;-60
2022/03/04 02:15:01;;;;;;;24.50;16.05;;;;;;;1.09;62.31;101890.06;5015776;28;20117;-60
2022/03/04 02:17:26;;;;;;;22.70;15.40;;;;;;;1.07;62.38;101889.25;5032751;28;20129;-60
2022/03/04 02:19:53;;;;;;;23.42;16.10;;;;;;;1.05;62.37;101890.16;5048870;28;20041;-61
2022/03/04 02:22:18;;;;;;;26.88;17.38;;;;;;;0.99;62.77;101887.69;5053038;28;20056;-60
2022/03/04 02:24:43;;;;;;;23.45;16.73;;;;;;;0.96;62.49;101890.34;5052724;28;20045;-60
2022/03/04 02:27:08;;;;;;;22.55;15.95;;;;;;;0.94;62.85;101887.75;5054772;28;20068;-61
2022/03/04 02:29:34;;;;;;;21.75;15.73;;;;;;;0.90;62.44;101889.56;5056438;28;20056;-60
2022/03/04 02:32:01;;;;;;;22.17;16.23;;;;;;;0.87;62.98;101880.94;5056640;28;20417;-60
2022/03/04 02:34:26;;;;;;;28.33;17.08;;;;;;;0.86;63.05;101881.81;5056177;28;20113;-60
2022/03/04 02:36:52;;;;;;;24.15;17.10;;;;;;;0.84;63.01;101875.75;5056726;28;20459;-60
2022/03/04 02:39:17;;;;;;;23.98;16.58;;;;;;;0.82;63.00;101877.56;5056446;28;20080;-60
2022/03/04 02:41:43;;;;;;;27.27;17.90;;;;;;;0.80;63.25;101863.63;5056442;28;20059;-60
2022/03/04 02:44:10;;;;;;;26.63;16.52;;;;;;;0.78;63.21;101866.25;5055898;28;20068;-60
2022/03/04 02:46:36;;;;;;;28.35;17.08;;;;;;;0.76;63.80;101875.91;5056071;28;20053;-60
2022/03/04 02:49:03;;;;;;;24.02;16.35;;;;;;;0.74;63.75;101875.06;5055766;28;20110;-61
2022/03/04 02:51:28;;;;;;;25.90;17.42;;;;;;;0.71;63.75;101872.50;5056161;28;20479;-61
2022/03/04 02:53:53;;;;;;;24.02;17.33;;;;;;;0.70;63.84;101873.38;5056301;28;20050;-61
2022/03/04 02:56:19;;;;;;;28.63;16.90;;;;;;;0.67;63.92;101863.00;5055699;28;20429;-60
2022/03/04 02:58:44;;;;;;;25.23;16.95;;;;;;;0.66;63.59;101864.75;5056127;28;20076;-60
2022/03/04 03:01:10;;;;;;;28.80;18.30;;;;;;;0.64;64.23;101871.75;5055911;28;20052;-60
2022/03/04 03:03:36;;;;;;;25.75;17.50;;;;;;;0.60;64.46;101874.47;5055829;28;20117;-60
2022/03/04 03:06:01;;;;;;;27.73;17.15;;;;;;;0.55;64.43;101867.56;5055710;28;20039;-60
2022/03/04 03:08:28;;;;;;;29.55;17.65;;;;;;;0.54;64.26;101871.06;5056051;28;20083;-60
2022/03/04 03:10:53;;;;;;;25.63;17.70;;;;;;;0.52;64.53;101878.09;5055590;28;20063;-60
2022/03/04 03:13:18;;;;;;;25.27;16.75;;;;;;;0.49;64.46;101872.06;5055911;28;20041;-61
2022/03/04 03:15:44;;;;;;;26.02;17.73;;;;;;;0.47;64.71;101873.84;5055268;28;20116;-60
2022/03/04 03:18:09;;;;;;;25.80;18.15;;;;;;;0.44;64.92;101868.66;5056152;28;20480;-60
2022/03/04 03:20:34;;;;;;;27.23;17.30;;;;;;;0.42;64.58;101867.81;5055188;28;20029;-60
2022/03/04 03:22:59;;;;;;;26.42;17.02;;;;;;;0.39;65.05;101865.28;5037727;28;20056;-60
2022/03/04 03:27:53;;;;;;;26.02;17.00;;;;;;;0.34;65.02;101860.13;5034164;28;20058;-86
2022/03/04 03:30:18;;;;;;;26.92;16.73;;;;;;;0.30;65.31;101863.66;5035024;28;20044;-86
2022/03/04 03:32:44;;;;;;;25.83;17.83;;;;;;;0.29;65.33;101864.56;5037293;28;20079;-86
2022/03/04 03:35:09;;;;;;;24.58;17.08;;;;;;;0.29;65.44;101867.19;5036369;28;20407;-86
2022/03/04 03:37:38;;;;;;;25.42;17.08;;;;;;;0.27;65.76;101879.41;5035903;28;20087;-86
2022/03/04 03:40:05;;;;;;;26.05;17.13;;;;;;;0.25;65.20;101882.06;5037644;28;20064;-86
2022/03/04 03:42:31;;;;;;;28.45;17.88;;;;;;;0.23;65.28;101873.34;5047932;28;20037;-87
2022/03/04 03:44:56;;;;;;;27.85;17.65;;;;;;;0.25;65.24;101886.41;5060536;28;20056;-87
2022/03/04 03:47:22;;;;;;;27.42;16.70;;;;;;;0.22;65.82;101879.47;5040088;28;20124;-86
2022/03/04 03:49:47;;;;;;;25.92;17.88;;;;;;;0.21;65.39;101874.28;5044434;28;20041;-86
2022/03/04 03:52:12;;;;;;;24.60;17.08;;;;;;;0.22;65.67;101873.38;5036306;28;20159;-87
2022/03/04 03:54:38;;;;;;;29.25;17.33;;;;;;;0.20;65.86;101873.44;5035724;28;20499;-86
2022/03/04 03:57:04;;;;;;;25.60;17.70;;;;;;;0.17;65.65;101874.34;5034888;28;20534;-86
2022/03/04 03:59:29;;;;;;;27.98;18.00;;;;;;;0.18;65.65;101875.19;5034566;28;20044;-86
2022/03/04 04:01:55;;;;;;;26.92;17.52;;;;;;;0.17;65.62;101882.16;5036126;28;20116;-86
2022/03/04 04:04:20;;;;;;;24.85;17.00;;;;;;;0.15;65.88;101883.06;5035919;28;20404;-86
2022/03/04 04:06:46;;;;;;;26.05;17.95;;;;;;;0.11;66.06;101882.25;5035654;28;20065;-86
2022/03/04 04:09:11;;;;;;;27.88;18.23;;;;;;;0.09;65.86;101888.41;5035726;28;20038;-86
2022/03/04 04:11:39;;;;;;;27.63;18.10;;;;;;;0.09;65.93;101893.63;5035504;28;20124;-86
2022/03/04 04:14:05;;;;;;;28.55;18.08;;;;;;;0.07;65.93;101896.28;5035412;28;20045;-86
2022/03/04 04:16:31;;;;;;;31.65;18.27;;;;;;;0.06;66.40;101889.31;5035312;28;20116;-86
2022/03/04 04:18:57;;;;;;;28.27;17.52;;;;;;;0.03;66.10;101891.97;5033982;28;20083;-86
2022/03/04 04:21:24;;;;;;;24.75;17.70;;;;;;;0.00;66.29;101894.66;5035167;28;20038;-86
2022/03/04 04:23:49;;;;;;;28.38;19.35;;;;;;;0.01;66.39;101900.72;5017549;28;20034;-85
2022/03/04 04:26:15;;;;;;;25.80;18.17;;;;;;;-0.04;66.47;101888.59;5035028;28;20473;-86
2022/03/04 04:28:40;;;;;;;25.98;17.55;;;;;;;-0.02;66.72;101893.78;5035065;28;20503;-86
2022/03/04 04:31:05;;;;;;;26.40;17.10;;;;;;;-0.03;66.62;101905.16;5035298;28;20040;-86
2022/03/04 04:33:31;;;;;;;28.25;19.10;;;;;;;-0.05;66.50;101901.66;5035010;28;20069;-86
2022/03/04 04:35:57;;;;;;;28.13;18.30;;;;;;;-0.08;66.42;101899.97;5017178;28;20055;-86
2022/03/04 04:38:22;;;;;;;26.05;18.02;;;;;;;-0.09;66.47;101898.25;5034262;28;20357;-86
2022/03/04 04:40:51;;;;;;;26.48;18.30;;;;;;;-0.08;66.98;101905.19;5034836;28;20027;-86
2022/03/04 04:43:16;;;;;;;28.13;18.35;;;;;;;-0.08;66.78;101907.81;5033966;28;20037;-86
2022/03/04 04:45:42;;;;;;;24.85;17.42;;;;;;;-0.07;66.88;101912.13;5035555;28;20037;-86
2022/03/04 04:48:07;;;;;;;28.48;18.25;;;;;;;-0.08;66.72;101915.66;5017921;28;20038;-86
2022/03/04 04:50:32;;;;;;;25.33;18.15;;;;;;;-0.09;66.94;101911.31;5035401;28;20476;-86
2022/03/04 04:52:58;;;;;;;27.90;19.17;;;;;;;-0.09;67.01;101913.06;5035109;28;20037;-86
2022/03/04 04:55:23;;;;;;;28.33;18.17;;;;;;;-0.10;66.81;101911.31;5034766;28;20030;-86
2022/03/04 04:57:48;;;;;;;28.95;18.45;;;;;;;-0.11;66.67;101912.22;5034639;28;20029;-86
2022/03/04 05:00:17;;;;;;;25.65;17.52;;;;;;;-0.11;66.72;101909.63;5035405;28;20477;-86
2022/03/04 05:02:43;;;;;;;29.35;18.40;;;;;;;-0.10;66.80;101909.59;5034099;28;20098;-86
2022/03/04 05:05:08;;;;;;;29.10;18.35;;;;;;;-0.12;66.79;101908.72;5034569;28;20065;-86
2022/03/04 05:07:33;;;;;;;25.17;17.33;;;;;;;-0.12;66.92;101900.91;5016950;28;20050;-86
2022/03/04 05:09:59;;;;;;;27.77;18.40;;;;;;;-0.14;66.94;101897.47;5034234;28;20121;-86
2022/03/04 05:12:24;;;;;;;29.08;17.58;;;;;;;-0.12;66.61;101905.28;5034292;28;20045;-86
2022/03/04 05:14:49;;;;;;;28.02;17.88;;;;;;;-0.15;67.50;101905.31;5034213;28;20124;-86
2022/03/04 05:17:14;;;;;;;35.42;19.13;;;;;;;-0.16;67.33;101907.06;5034231;28;20053;-86
2022/03/04 05:19:40;;;;;;;33.13;19.90;;;;;;;-0.16;66.97;101907.06;5034739;28;20096;-86
2022/03/04 05:22:05;;;;;;;30.63;19.55;;;;;;;-0.19;67.01;101894.06;5034894;28;20072;-86
2022/03/04 05:24:30;;;;;;;30.55;19.05;;;;;;;-0.18;66.87;101903.63;5034402;28;20377;-86
2022/03/04 05:26:56;;;;;;;30.42;18.33;;;;;;;-0.22;66.98;101905.41;5034096;28;20136;-86
2022/03/04 05:29:21;;;;;;;27.35;19.05;;;;;;;-0.22;67.41;101904.53;5034139;28;20032;-86
2022/03/04 05:31:47;;;;;;;27.77;18.45;;;;;;;-0.23;66.96;101905.44;5034233;28;20036;-86
2022/03/04 05:34:12;;;;;;;30.00;18.27;;;;;;;-0.26;67.14;101908.09;5034075;28;20171;-86
2022/03/04 05:36:39;;;;;;;32.25;19.88;;;;;;;-0.27;67.19;101907.22;5033701;28;20061;-85
2022/03/04 05:39:04;;;;;;;28.08;19.70;;;;;;;-0.27;67.42;101906.34;5016831;28;20384;-86
2022/03/04 05:41:30;;;;;;;28.35;19.15;;;;;;;-0.26;67.37;101914.16;5034229;28;20034;-86
2022/03/04 05:43:56;;;;;;;27.23;18.00;;;;;;;-0.29;67.86;101918.56;5034048;28;20088;-87
2022/03/04 05:46:22;;;;;;;26.77;18.45;;;;;;;-0.29;67.46;101923.78;5033850;28;20504;-86
2022/03/04 05:48:47;;;;;;;28.10;17.67;;;;;;;-0.33;67.75;101936.03;5032911;28;20136;-86
2022/03/04 05:51:13;;;;;;;28.40;18.48;;;;;;;-0.32;67.57;101936.88;5034066;28;20037;-86
2022/03/04 05:53:38;;;;;;;29.70;19.23;;;;;;;-0.35;67.85;101932.59;5033826;28;20033;-86
2022/03/04 05:56:07;;;;;;;30.80;20.20;;;;;;;-0.38;67.42;101938.69;5033905;28;20033;-86
2022/03/04 05:58:33;;;;;;;30.33;18.15;;;;;;;-0.38;66.91;101941.31;5033869;28;20069;-86
2022/03/04 06:00:59;;;;;;;25.70;17.73;;;;;;;-0.40;68.03;101939.59;5034906;28;20435;-86
2022/03/04 06:03:24;;;;;;;24.73;17.27;;;;;;;-0.45;67.27;101944.00;5038226;28;20043;-86
2022/03/04 06:05:50;;;;;;;30.10;19.58;;;;;;;-0.46;67.44;101942.28;5038337;28;20090;-86
2022/03/04 06:08:15;;;;;;;30.67;18.85;;;;;;;-0.49;67.58;101945.78;5020060;28;20045;-86
2022/03/04 06:10:40;;;;;;;26.85;18.00;;;;;;;-0.52;68.10;101947.59;5037277;28;20053;-86
2022/03/04 06:13:06;;;;;;;31.50;19.63;;;;;;;-0.56;67.54;101942.41;5037682;28;20041;-86
2022/03/04 06:15:32;;;;;;;32.13;20.10;;;;;;;-0.58;68.02;101945.94;5038089;28;20032;-86
2022/03/04 06:17:57;;;;;;;29.88;19.20;;;;;;;-0.58;68.08;101946.78;5037886;28;20061;-86
2022/03/04 06:20:23;;;;;;;30.13;18.77;;;;;;;-0.59;68.43;101952.03;5037875;28;20033;-86
2022/03/04 06:22:49;;;;;;;30.98;19.73;;;;;;;-0.61;68.66;101957.25;5037578;28;20037;-86
2022/03/04 06:25:14;;;;;;;30.42;18.35;;;;;;;-0.63;68.58;101953.81;5019610;28;20025;-86
2022/03/04 06:28:00;;;;;;;30.05;19.25;;;;;;;-0.61;68.37;101954.66;5038009;28;20049;-86
2022/03/04 06:30:28;;;;;;;29.50;19.50;;;;;;;-0.64;68.84;101962.50;5020830;28;20067;-86
2022/03/04 06:33:30;;;;;;;31.05;19.95;;;;;;;-0.64;68.83;101964.25;5020005;28;20065;-86
2022/03/04 06:35:41;;;;;;;34.88;20.35;;;;;;;-0.66;68.94;101959.06;5056550;28;20024;-86
2022/03/04 06:38:06;;;;;;;28.95;19.08;;;;;;;-0.68;68.77;101960.84;5054638;28;20052;-86
2022/03/04 06:40:36;;;;;;;29.42;19.80;;;;;;;-0.67;68.77;101974.72;5038561;28;20112;-86
2022/03/04 06:43:01;;;;;;;29.35;19.10;;;;;;;-0.71;68.92;101971.28;5047973;28;20056;-86
2022/03/04 06:45:26;;;;;;;31.73;19.70;;;;;;;-0.73;69.13;101969.56;5046175;28;20041;-86
2022/03/04 06:47:52;;;;;;;31.58;21.40;;;;;;;-0.72;69.10;101968.69;5039117;28;20042;-87
2022/03/04 06:50:17;;;;;;;36.05;21.95;;;;;;;-0.71;69.75;101976.50;5037596;28;20380;-86
2022/03/04 06:52:43;;;;;;;31.05;20.10;;;;;;;-0.76;68.92;101968.72;5038561;28;20064;-86
2022/03/04 06:55:09;;;;;;;30.55;20.50;;;;;;;-0.74;69.15;101976.53;5039078;28;20392;-86
2022/03/04 06:57:35;;;;;;;30.48;20.38;;;;;;;-0.73;69.24;101982.63;5037197;28;20046;-87
2022/03/04 07:00:00;;;;;;;31.98;20.20;;;;;;;-0.72;70.19;101981.75;5037006;28;20030;-86
2022/03/04 07:02:26;;;;;;;30.38;20.23;;;;;;;-0.70;69.96;101987.81;5018821;28;20040;-86
2022/03/04 07:04:51;;;;;;;31.10;19.83;;;;;;;-0.66;69.63;101995.59;5036998;28;20034;-86
2022/03/04 07:07:16;;;;;;;29.73;19.92;;;;;;;-0.67;69.92;101993.84;5019192;28;20091;-86
2022/03/04 07:09:41;;;;;;;31.42;20.80;;;;;;;-0.67;69.44;102003.44;5035400;28;20033;-86
2022/03/04 07:12:07;;;;;;;34.03;20.98;;;;;;;-0.67;69.87;102006.88;5020962;28;20044;-86
2022/03/04 07:14:32;;;;;;;32.53;21.60;;;;;;;-0.64;70.23;102009.47;5038757;28;20072;-86
2022/03/04 07:16:58;;;;;;;31.67;22.10;;;;;;;-0.63;70.09;102016.44;5023216;28;20135;-86
2022/03/04 07:19:23;;;;;;;34.17;20.60;;;;;;;-0.59;70.02;102019.88;5037549;28;20063;-87
2022/03/04 07:21:48;;;;;;;33.38;21.75;;;;;;;-0.53;70.48;102024.13;5030489;28;20431;-86
2022/03/04 07:24:14;;;;;;;32.83;20.90;;;;;;;-0.53;70.15;102017.19;5043222;28;20045;-87
2022/03/04 07:26:39;;;;;;;32.15;20.85;;;;;;;-0.49;70.59;102021.47;5021808;28;20056;-86
2022/03/04 07:29:05;;;;;;;36.08;23.75;;;;;;;-0.43;70.42;102020.56;5023415;28;20082;-86
2022/03/04 07:31:30;;;;;;;36.78;23.27;;;;;;;-0.38;69.88;102021.38;5042961;28;20060;-85
2022/03/04 07:33:56;;;;;;;38.58;24.77;;;;;;;-0.32;70.30;102010.84;5023360;28;20037;-85
2022/03/04 07:36:21;;;;;;;36.20;23.88;;;;;;;-0.28;69.51;102020.38;5039492;28;20030;-85
2022/03/04 07:38:46;;;;;;;33.60;23.13;;;;;;;-0.19;70.37;102015.00;5041345;28;20081;-84
2022/03/04 07:41:12;;;;;;;33.38;22.52;;;;;;;-0.14;69.97;102014.09;5039795;28;20033;-86
2022/03/04 07:43:37;;;;;;;40.72;26.42;;;;;;;-0.06;69.70;102017.47;5043216;28;20033;-86
2022/03/04 07:46:03;;;;;;;35.17;23.15;;;;;;;-0.01;69.86;102019.13;5040547;28;20025;-85
2022/03/04 07:48:28;;;;;;;34.80;22.50;;;;;;;0.05;69.07;102014.72;5044038;28;20112;-85
2022/03/04 07:50:54;;;;;;;35.33;21.80;;;;;;;0.14;69.26;102014.59;5039226;28;20036;-85
2022/03/04 07:53:19;;;;;;;34.17;21.80;;;;;;;0.21;68.79;102018.84;5038405;28;20037;-84
2022/03/04 07:56:01;;;;;;;32.28;21.20;;;;;;;0.30;67.87;102010.88;5036472;28;20049;-84
2022/03/04 07:58:26;;;;;;;38.10;22.58;;;;;;;0.38;68.46;102010.75;5019945;28;20096;-84
2022/03/04 08:01:03;;;;;;;35.65;22.67;;;;;;;0.49;68.42;102013.19;5036769;28;20037;-84
2022/03/04 08:03:31;;;;;;;31.30;20.15;;;;;;;0.58;67.61;102017.41;5036620;28;20038;-84
2022/03/04 08:05:57;;;;;;;35.47;21.85;;;;;;;0.69;67.53;102015.50;5037057;28;20618;-84
2022/03/04 08:08:22;;;;;;;34.70;22.25;;;;;;;0.77;67.22;102017.97;5035790;28;20100;-85
2022/03/04 08:10:48;;;;;;;30.02;19.00;;;;;;;0.89;66.74;102010.78;5019651;28;20041;-84
2022/03/04 08:13:13;;;;;;;32.25;19.55;;;;;;;1.03;66.54;102020.13;5018991;28;20573;-85
2022/03/04 08:15:38;;;;;;;30.45;20.63;;;;;;;1.18;66.18;102014.63;5036924;28;20040;-84
2022/03/04 08:18:04;;;;;;;29.70;19.92;;;;;;;1.35;65.43;102021.28;5036660;28;20507;-85
2022/03/04 08:20:31;;;;;;;29.90;18.67;;;;;;;1.52;64.53;102016.59;5036179;28;20037;-85
2022/03/04 08:22:57;;;;;;;31.00;18.35;;;;;;;1.76;64.06;102017.00;5034635;28;20041;-84
2022/03/04 08:25:22;;;;;;;30.27;19.90;;;;;;;1.95;63.65;102014.81;5034884;28;20079;-85
2022/03/04 08:27:48;;;;;;;34.00;21.77;;;;;;;2.21;63.73;102016.88;5018256;28;20053;-85
2022/03/04 08:30:14;;;;;;;33.33;19.88;;;;;;;2.45;62.20;102017.19;5035219;28;20365;-84
2022/03/04 08:32:52;;;;;;;29.70;19.98;;;;;;;2.68;61.34;102028.03;5035927;28;20041;-85
2022/03/04 08:35:23;;;;;;;31.17;19.43;;;;;;;2.89;60.11;102031.00;5035389;28;20160;-85
2022/03/04 08:37:48;;;;;;;33.40;20.88;;;;;;;3.11;59.97;102029.56;5034494;28;20046;-85
2022/03/04 08:40:17;;;;;;;36.10;21.98;;;;;;;3.36;59.58;102028.03;5034968;28;20044;-85
2022/03/04 08:42:52;;;;;;;30.30;20.80;;;;;;;3.57;58.85;102035.31;5034683;28;20029;-85
2022/03/04 08:45:21;;;;;;;33.25;20.95;;;;;;;3.78;58.09;102031.22;5034975;28;20042;-85
2022/03/04 08:47:46;;;;;;;;;;;;;;;3.94;59.62;102030.75;5036255;28;20037;-85
2022/03/04 08:50:14;;;;;;;29.90;19.15;;;;;;;4.19;56.76;102034.34;5036317;28;19913;-86
2022/03/04 08:52:39;;;;;;;28.40;19.73;;;;;;;4.44;55.67;102036.22;5036418;28;20041;-86
2022/03/04 08:55:15;;;;;;;28.83;20.58;;;;;;;4.64;56.20;102046.97;5037150;28;20030;-86
2022/03/04 08:57:43;;;;;;;27.77;19.50;;;;;;;4.89;54.98;102048.78;5040536;28;20041;-86
2022/03/04 09:00:09;;;;;;;27.58;19.25;;;;;;;5.10;53.89;102052.47;5038207;28;20084;-86
2022/03/04 09:02:35;;;;;;;29.08;19.23;;;;;;;5.21;53.13;102040.72;5038873;28;20077;-85
2022/03/04 09:05:00;;;;;;;29.38;19.55;;;;;;;5.31;53.15;102036.84;5037895;28;20124;-85
2022/03/04 09:07:25;;;;;;;27.05;19.15;;;;;;;5.46;52.32;102040.69;5039567;28;20022;-86
2022/03/04 09:09:51;;;;;;;29.25;19.50;;;;;;;5.69;51.98;102037.22;5019573;28;20535;-85
2022/03/04 09:12:18;;;;;;;30.45;19.52;;;;;;;5.85;51.40;102035.75;5037474;28;20093;-85
2022/03/04 09:14:44;;;;;;;27.55;19.27;;;;;;;6.06;50.75;102041.13;5041256;28;20120;-86
2022/03/04 09:17:09;;;;;;;26.20;17.25;;;;;;;6.14;50.38;102036.44;5040151;28;20543;-85
2022/03/04 09:19:34;;;;;;;28.55;18.90;;;;;;;6.32;50.34;102039.28;5023101;28;20388;-86
2022/03/04 09:22:00;;;;;;;28.33;18.80;;;;;;;6.56;49.26;102037.44;5037676;28;20034;-86
2022/03/04 09:24:25;;;;;;;25.67;18.30;;;;;;;6.67;48.87;102022.00;5040845;28;20048;-86
2022/03/04 09:26:50;;;;;;;27.85;18.55;;;;;;;6.80;48.28;102030.28;5049370;28;20037;-89
2022/03/04 09:29:16;;;;;;;29.10;19.15;;;;;;;6.89;48.03;102034.31;5057585;28;20041;-86
2022/03/04 09:31:42;;;;;;;24.85;17.52;;;;;;;6.94;47.32;102032.34;5040618;28;20152;-85
2022/03/04 09:34:07;;;;;;;24.95;18.90;;;;;;;7.18;48.08;102025.16;5042195;28;20132;-85
2022/03/04 09:36:33;;;;;;;27.95;19.25;;;;;;;7.28;46.94;102023.84;5018207;28;20128;-85
2022/03/04 09:38:59;;;;;;;25.33;17.98;;;;;;;7.43;47.67;102021.44;5036530;28;20064;-85
2022/03/04 09:41:25;;;;;;;28.25;18.70;;;;;;;7.59;46.32;102023.34;5034992;28;20029;-85
2022/03/04 09:43:54;;;;;;;27.58;18.58;;;;;;;7.74;45.40;102018.25;5035587;28;20040;-85
2022/03/04 09:46:21;;;;;;;25.70;18.65;;;;;;;7.88;46.19;102020.28;5023509;28;20034;-85
2022/03/04 09:48:48;;;;;;;24.73;18.08;;;;;;;7.95;45.28;102013.78;5041866;28;20489;-85
2022/03/04 09:51:13;;;;;;;28.45;18.73;;;;;;;8.13;45.58;102014.69;5055953;28;20032;-87
2022/03/04 09:53:39;;;;;;;27.52;20.08;;;;;;;8.34;45.69;102015.44;5057752;28;20034;-88
2022/03/04 09:56:04;;;;;;;27.08;18.63;;;;;;;8.58;44.61;102023.19;5055970;28;20062;-86
2022/03/04 09:58:30;;;;;;;25.45;18.85;;;;;;;8.65;44.18;102014.84;5056310;28;20028;-86
2022/03/04 10:00:55;;;;;;;25.23;19.08;;;;;;;8.84;43.43;102024.50;5037316;28;20038;-85
2022/03/04 10:03:30;;;;;;;27.48;19.60;;;;;;;9.08;43.67;102014.47;5050350;28;20141;-84
2022/03/04 10:05:59;;;;;;;27.30;19.77;;;;;;;9.31;42.32;102015.03;5041761;28;20176;-82
2022/03/04 10:08:25;;;;;;;28.13;19.20;;;;;;;9.55;42.48;102011.09;5053755;28;20026;-88
2022/03/04 10:10:52;;;;;;;25.98;18.92;;;;;;;9.76;42.14;102006.44;5041163;28;20052;-85
2022/03/04 10:13:18;;;;;;;26.50;19.33;;;;;;;9.96;42.04;102015.09;5053834;28;20483;-85
2022/03/04 10:16:04;;;;;;;27.25;19.25;;;;;;;10.07;42.65;102011.84;5057943;28;20056;-87
2022/03/04 10:18:30;;;;;;;27.85;19.00;;;;;;;10.26;41.67;102006.34;5057824;28;20022;-89
2022/03/04 10:20:55;;;;;;;28.38;19.65;;;;;;;10.40;41.20;102009.13;5057431;28;20021;-89
2022/03/04 10:23:24;;;;;;;26.17;20.58;;;;;;;10.47;40.21;102020.25;5038353;28;20057;-90
2022/03/04 10:25:53;;;;;;;27.33;19.50;;;;;;;10.67;40.03;102021.75;5057297;28;20033;-86
2022/03/04 10:28:23;;;;;;;25.25;19.23;;;;;;;10.92;40.09;102021.16;5058108;28;20043;-89
2022/03/04 10:30:51;;;;;;;23.98;18.23;;;;;;;11.03;40.30;102017.88;5040575;28;20049;-89
2022/03/04 10:33:19;;;;;;;23.00;17.70;;;;;;;11.07;38.19;102014.94;5057912;28;20032;-89
2022/03/04 10:35:46;;;;;;;28.33;18.52;;;;;;;11.20;38.97;102017.69;5024645;28;20032;-89
2022/03/04 10:38:23;;;;;;;24.98;18.67;;;;;;;11.36;40.33;102016.75;5057842;28;20047;-87
2022/03/04 10:40:49;;;;;;;24.73;18.45;;;;;;;11.42;38.38;102022.59;5057184;28;20115;-86
2022/03/04 10:43:21;;;;;;;27.10;19.70;;;;;;;11.61;38.37;102019.63;5066943;23;20028;-60
2022/03/04 10:45:47;;;;;;;25.40;17.45;;;;;;;11.66;36.94;102012.22;5070696;28;20110;-60
2022/03/04 10:48:17;;;;;;;23.60;17.73;;;;;;;11.77;38.31;102008.03;5072592;28;20482;-59
2022/03/04 10:50:43;;;;;;;24.52;18.13;;;;;;;11.88;37.35;102008.19;5073561;28;20548;-59
2022/03/04 10:53:16;;;;;;;23.70;18.20;;;;;;;12.07;37.73;102001.72;5073265;28;20119;-59
2022/03/04 10:55:50;;;;;;;25.75;18.05;;;;;;;12.34;37.93;101997.28;5074799;28;20041;-59
2022/03/04 10:58:15;;;;;;;25.23;18.02;;;;;;;12.64;36.72;102001.53;5074771;28;20036;-60
2022/03/04 11:00:43;;;;;;;24.77;17.58;;;;;;;12.62;35.63;102006.09;5073648;28;20059;-60
2022/03/04 11:03:18;;;;;;;22.50;17.95;;;;;;;12.76;36.03;102000.69;5074461;28;20535;-59
2022/03/04 11:05:43;;;;;;;22.45;16.60;;;;;;;12.66;34.54;101996.94;5074143;28;20490;-59
2022/03/04 11:08:09;;;;;;;21.77;16.08;;;;;;;12.81;34.39;101996.88;5075089;28;20079;-60
2022/03/04 11:10:35;;;;;;;23.17;16.67;;;;;;;12.81;33.62;102004.88;5074284;28;20033;-59
2022/03/04 11:13:04;;;;;;;25.83;17.40;;;;;;;12.77;34.51;102001.56;5074379;28;20061;-59